createdAt,value
2019-05-29T00:00:24.308Z,0.00
2019-05-29T00:01:24.306Z,0.00
2019-05-29T00:02:24.277Z,0.00
2019-05-29T00:03:24.255Z,0.00
2019-05-29T00:04:24.236Z,0.00
2019-05-29T00:05:24.230Z,0.00
2019-05-29T00:06:24.206Z,0.00
2019-05-29T00:07:24.189Z,0.00
2019-05-29T00:08:24.174Z,0.00
2019-05-29T00:09:24.155Z,0.00
2019-05-29T00:10:24.139Z,0.00
2019-05-29T00:11:24.122Z,0.00
2019-05-29T00:12:24.105Z,0.00
2019-05-29T00:13:24.090Z,0.00
2019-05-29T00:14:27.370Z,0.00
2019-05-29T00:15:24.060Z,0.00
2019-05-29T00:16:24.046Z,0.00
2019-05-29T00:17:24.024Z,0.00
2019-05-29T00:18:24.017Z,0.00
2019-05-29T00:19:23.996Z,0.00
2019-05-29T00:20:23.977Z,0.00
2019-05-29T00:21:23.956Z,0.00
2019-05-29T00:22:23.943Z,0.00
2019-05-29T00:23:23.924Z,0.00
2019-05-29T00:24:25.166Z,0.00
2019-05-29T00:25:23.893Z,0.00
2019-05-29T00:26:23.876Z,0.00
2019-05-29T00:27:23.859Z,0.00
2019-05-29T00:28:23.843Z,0.00
2019-05-29T00:29:23.826Z,0.00
2019-05-29T00:30:23.832Z,0.00
2019-05-29T00:31:23.793Z,0.00
2019-05-29T00:32:23.779Z,0.00
2019-05-29T00:33:23.762Z,0.00
2019-05-29T00:34:23.744Z,0.00
2019-05-29T00:35:23.727Z,0.00
2019-05-29T00:36:23.728Z,0.00
2019-05-29T00:37:23.696Z,0.00
2019-05-29T00:38:23.678Z,0.00
2019-05-29T00:39:23.663Z,0.00
2019-05-29T00:40:23.645Z,0.00
2019-05-29T00:41:23.633Z,0.00
2019-05-29T00:42:23.611Z,0.00
2019-05-29T00:43:23.597Z,0.00
2019-05-29T00:44:33.989Z,0.00
2019-05-29T00:45:23.569Z,0.00
2019-05-29T00:46:23.544Z,0.00
2019-05-29T00:47:23.530Z,0.00
2019-05-29T00:48:23.515Z,0.00
2019-05-29T00:49:23.498Z,0.00
2019-05-29T00:50:23.483Z,0.00
2019-05-29T00:51:23.464Z,0.00
2019-05-29T00:52:23.448Z,0.00
2019-05-29T00:53:23.431Z,0.00
2019-05-29T00:54:23.416Z,0.00
2019-05-29T00:55:23.401Z,0.00
2019-05-29T00:56:23.383Z,0.00
2019-05-29T00:57:23.364Z,0.00
2019-05-29T00:58:23.350Z,0.00
2019-05-29T00:59:23.333Z,0.00
2019-05-29T01:00:23.316Z,0.00
2019-05-29T01:01:23.299Z,0.00
2019-05-29T01:02:23.289Z,0.00
2019-05-29T01:03:23.266Z,0.00
2019-05-29T01:04:23.249Z,0.00
2019-05-29T01:05:23.235Z,0.00
2019-05-29T01:06:23.216Z,0.00
2019-05-29T01:07:23.200Z,0.00
2019-05-29T01:08:23.183Z,0.00
2019-05-29T01:09:23.168Z,0.00
2019-05-29T01:10:23.150Z,0.00
2019-05-29T01:11:23.133Z,0.00
2019-05-29T01:12:23.116Z,0.00
2019-05-29T01:13:23.102Z,0.00
2019-05-29T01:14:23.086Z,0.00
2019-05-29T01:15:23.069Z,0.00
2019-05-29T01:16:23.050Z,0.00
2019-05-29T01:17:23.033Z,0.00
2019-05-29T01:18:23.030Z,0.00
2019-05-29T01:19:23.000Z,0.00
2019-05-29T01:20:22.985Z,0.00
2019-05-29T01:21:22.972Z,0.00
2019-05-29T01:22:22.951Z,0.00
2019-05-29T01:23:22.934Z,0.00
2019-05-29T01:24:22.921Z,0.00
2019-05-29T01:25:22.900Z,0.00
2019-05-29T01:26:22.940Z,0.00
2019-05-29T01:27:23.177Z,0.00
2019-05-29T01:28:23.088Z,0.00
2019-05-29T01:29:23.444Z,0.00
2019-05-29T01:30:23.424Z,0.00
2019-05-29T01:31:23.609Z,0.00
2019-05-29T01:32:23.748Z,0.00
2019-05-29T01:33:24.550Z,0.00
2019-05-29T01:34:23.875Z,0.00
2019-05-29T01:35:24.047Z,0.00
2019-05-29T01:36:22.721Z,0.00
2019-05-29T01:37:22.715Z,0.00
2019-05-29T01:38:23.499Z,0.00
2019-05-29T01:39:23.498Z,0.00
2019-05-29T01:40:27.229Z,0.00
2019-05-29T01:41:23.528Z,0.00
2019-05-29T01:42:23.535Z,0.00
2019-05-29T01:43:23.572Z,0.00
2019-05-29T01:44:23.681Z,0.00
2019-05-29T01:45:23.538Z,0.00
2019-05-29T01:46:23.924Z,0.00
2019-05-29T01:47:23.602Z,0.00
2019-05-29T01:48:23.604Z,0.00
2019-05-29T01:49:23.697Z,0.00
2019-05-29T01:50:23.625Z,0.00
2019-05-29T01:51:23.552Z,0.00
2019-05-29T01:52:23.717Z,0.00
2019-05-29T01:53:23.466Z,0.00
2019-05-29T01:54:22.422Z,0.00
2019-05-29T01:55:22.404Z,0.00
2019-05-29T01:56:22.385Z,0.00
2019-05-29T01:57:22.371Z,0.00
2019-05-29T01:58:22.362Z,0.00
2019-05-29T01:59:22.336Z,0.00
2019-05-29T02:00:22.319Z,0.00
2019-05-29T02:01:22.304Z,0.00
2019-05-29T02:02:22.285Z,0.00
2019-05-29T02:03:22.270Z,0.00
2019-05-29T02:04:22.297Z,0.00
2019-05-29T02:05:22.237Z,0.00
2019-05-29T02:06:22.222Z,0.00
2019-05-29T02:07:22.488Z,0.00
2019-05-29T02:08:22.201Z,0.00
2019-05-29T02:09:22.171Z,0.00
2019-05-29T02:10:22.237Z,0.00
2019-05-29T02:11:23.263Z,0.00
2019-05-29T02:12:22.373Z,0.00
2019-05-29T02:13:22.106Z,0.00
2019-05-29T02:14:22.744Z,0.00
2019-05-29T02:15:30.187Z,0.00
2019-05-29T02:16:22.674Z,0.00
2019-05-29T02:17:22.034Z,0.00
2019-05-29T02:18:22.959Z,0.00
2019-05-29T02:19:22.004Z,0.00
2019-05-29T02:20:23.072Z,0.00
2019-05-29T02:21:22.345Z,0.00
2019-05-29T02:22:23.029Z,0.00
2019-05-29T02:23:22.138Z,0.00
2019-05-29T02:24:23.164Z,0.00
2019-05-29T02:25:22.338Z,0.00
2019-05-29T02:26:22.425Z,0.00
2019-05-29T02:27:21.873Z,0.00
2019-05-29T02:28:22.618Z,0.00
2019-05-29T02:29:22.936Z,0.00
2019-05-29T02:30:23.595Z,0.00
2019-05-29T02:31:24.115Z,0.00
2019-05-29T02:32:23.452Z,0.00
2019-05-29T02:33:22.038Z,0.00
2019-05-29T02:34:22.663Z,0.00
2019-05-29T02:35:22.548Z,0.00
2019-05-29T02:36:22.364Z,0.00
2019-05-29T02:37:22.266Z,0.00
2019-05-29T02:38:22.877Z,0.00
2019-05-29T02:39:23.014Z,0.00
2019-05-29T02:40:23.549Z,0.00
2019-05-29T02:41:23.472Z,0.00
2019-05-29T02:42:22.681Z,0.00
2019-05-29T02:43:23.401Z,0.00
2019-05-29T02:44:23.341Z,0.00
2019-05-29T02:45:23.471Z,0.00
2019-05-29T02:46:21.842Z,0.00
2019-05-29T02:47:21.730Z,0.00
2019-05-29T02:48:23.173Z,0.00
2019-05-29T02:49:21.647Z,0.00
2019-05-29T02:50:22.173Z,0.00
2019-05-29T02:51:22.055Z,0.00
2019-05-29T02:52:21.918Z,0.00
2019-05-29T02:53:22.273Z,0.00
2019-05-29T02:54:22.531Z,0.00
2019-05-29T02:55:22.527Z,0.00
2019-05-29T02:56:22.973Z,0.00
2019-05-29T02:57:22.835Z,0.00
2019-05-29T02:58:22.027Z,0.00
2019-05-29T02:59:23.239Z,0.00
2019-05-29T03:00:23.261Z,0.00
2019-05-29T03:01:21.594Z,0.00
2019-05-29T03:02:21.579Z,0.00
2019-05-29T03:03:21.564Z,0.00
2019-05-29T03:04:21.696Z,0.00
2019-05-29T03:05:21.897Z,0.00
2019-05-29T03:06:22.306Z,0.00
2019-05-29T03:07:22.229Z,0.00
2019-05-29T03:08:22.276Z,0.00
2019-05-29T03:09:22.659Z,0.00
2019-05-29T03:10:22.475Z,0.00
2019-05-29T03:11:22.891Z,0.00
2019-05-29T03:12:22.749Z,0.00
2019-05-29T03:13:21.109Z,0.00
2019-05-29T03:14:21.093Z,0.00
2019-05-29T03:15:21.075Z,0.00
2019-05-29T03:16:21.069Z,0.00
2019-05-29T03:17:21.044Z,0.00
2019-05-29T03:18:21.032Z,0.00
2019-05-29T03:19:21.009Z,0.00
2019-05-29T03:20:20.993Z,0.00
2019-05-29T03:21:20.981Z,0.00
2019-05-29T03:22:20.965Z,0.00
2019-05-29T03:23:20.941Z,0.00
2019-05-29T03:24:20.924Z,0.00
2019-05-29T03:25:20.914Z,0.00
2019-05-29T03:26:24.747Z,0.00
2019-05-29T03:27:20.878Z,0.00
2019-05-29T03:28:20.857Z,0.00
2019-05-29T03:29:20.840Z,0.00
2019-05-29T03:30:20.826Z,0.00
2019-05-29T03:31:20.826Z,0.00
2019-05-29T03:32:20.811Z,0.00
2019-05-29T03:33:20.775Z,0.00
2019-05-29T03:34:20.756Z,0.00
2019-05-29T03:35:20.739Z,0.00
2019-05-29T03:36:20.724Z,0.00
2019-05-29T03:37:20.706Z,0.00
2019-05-29T03:38:20.689Z,0.00
2019-05-29T03:39:20.672Z,0.00
2019-05-29T03:40:20.657Z,0.00
2019-05-29T03:41:20.639Z,0.00
2019-05-29T03:42:20.622Z,0.00
2019-05-29T03:43:20.606Z,0.00
2019-05-29T03:44:20.587Z,0.00
2019-05-29T03:45:20.576Z,0.00
2019-05-29T03:46:31.646Z,0.00
2019-05-29T03:47:20.540Z,0.00
2019-05-29T03:48:20.519Z,0.00
2019-05-29T03:49:20.504Z,5.63
2019-05-29T03:50:20.490Z,5.63
2019-05-29T03:51:20.490Z,5.63
2019-05-29T03:52:20.457Z,5.63
2019-05-29T03:53:20.437Z,5.63
2019-05-29T03:54:20.423Z,5.63
2019-05-29T03:55:20.405Z,5.63
2019-05-29T03:56:20.385Z,5.63
2019-05-29T03:57:20.368Z,5.63
2019-05-29T03:58:20.353Z,5.63
2019-05-29T03:59:20.332Z,5.63
2019-05-29T04:00:20.319Z,11.25
2019-05-29T04:01:20.304Z,11.25
2019-05-29T04:02:20.287Z,11.25
2019-05-29T04:03:20.267Z,11.25
2019-05-29T04:04:20.256Z,11.25
2019-05-29T04:05:20.239Z,11.25
2019-05-29T04:06:20.216Z,11.25
2019-05-29T04:07:20.226Z,11.25
2019-05-29T04:08:20.189Z,11.25
2019-05-29T04:09:20.167Z,11.25
2019-05-29T04:10:20.150Z,5.63
2019-05-29T04:11:20.135Z,11.25
2019-05-29T04:12:20.118Z,11.25
2019-05-29T04:13:20.101Z,11.25
2019-05-29T04:14:20.082Z,11.25
2019-05-29T04:15:20.071Z,11.25
2019-05-29T04:16:20.054Z,11.25
2019-05-29T04:17:20.033Z,11.25
2019-05-29T04:18:20.113Z,11.25
2019-05-29T04:19:19.997Z,11.25
2019-05-29T04:20:19.982Z,11.25
2019-05-29T04:21:19.978Z,11.25
2019-05-29T04:22:19.950Z,11.25
2019-05-29T04:23:19.924Z,11.25
2019-05-29T04:24:19.913Z,11.25
2019-05-29T04:25:19.913Z,11.25
2019-05-29T04:26:19.886Z,11.25
2019-05-29T04:27:19.864Z,11.25
2019-05-29T04:28:19.845Z,11.25
2019-05-29T04:29:19.831Z,11.25
2019-05-29T04:30:19.817Z,11.25
2019-05-29T04:31:19.798Z,11.25
2019-05-29T04:32:19.779Z,16.88
2019-05-29T04:33:19.763Z,16.88
2019-05-29T04:34:19.755Z,16.88
2019-05-29T04:35:19.730Z,22.50
2019-05-29T04:36:19.712Z,22.50
2019-05-29T04:37:19.704Z,22.50
2019-05-29T04:38:19.681Z,22.50
2019-05-29T04:39:19.677Z,22.50
2019-05-29T04:40:19.647Z,22.50
2019-05-29T04:41:19.630Z,22.50
2019-05-29T04:42:19.628Z,22.50
2019-05-29T04:43:19.596Z,22.50
2019-05-29T04:44:19.582Z,22.50
2019-05-29T04:45:19.567Z,22.50
2019-05-29T04:46:19.546Z,22.50
2019-05-29T04:47:19.535Z,22.50
2019-05-29T04:48:19.517Z,22.50
2019-05-29T04:49:20.444Z,22.50
2019-05-29T04:50:19.480Z,22.50
2019-05-29T04:51:19.464Z,22.50
2019-05-29T04:52:19.450Z,22.50
2019-05-29T04:53:19.432Z,22.50
2019-05-29T04:54:19.421Z,22.50
2019-05-29T04:55:19.397Z,22.50
2019-05-29T04:56:19.382Z,22.50
2019-05-29T04:57:19.365Z,22.50
2019-05-29T04:58:19.361Z,22.50
2019-05-29T04:59:19.330Z,22.50
2019-05-29T05:00:19.317Z,22.50
2019-05-29T05:01:19.299Z,22.50
2019-05-29T05:02:19.303Z,28.13
2019-05-29T05:03:19.263Z,28.13
2019-05-29T05:04:19.250Z,28.13
2019-05-29T05:05:19.744Z,28.13
2019-05-29T05:06:19.220Z,28.13
2019-05-29T05:07:19.204Z,28.13
2019-05-29T05:08:19.183Z,28.13
2019-05-29T05:09:19.167Z,28.13
2019-05-29T05:10:19.152Z,28.13
2019-05-29T05:11:19.137Z,28.13
2019-05-29T05:12:19.118Z,28.13
2019-05-29T05:13:19.101Z,28.13
2019-05-29T05:14:19.098Z,28.13
2019-05-29T05:15:19.069Z,22.50
2019-05-29T05:16:19.053Z,22.50
2019-05-29T05:17:26.124Z,22.50
2019-05-29T05:18:19.020Z,22.50
2019-05-29T05:19:19.009Z,22.50
2019-05-29T05:20:18.990Z,22.50
2019-05-29T05:21:18.973Z,22.50
2019-05-29T05:22:18.955Z,22.50
2019-05-29T05:23:18.940Z,22.50
2019-05-29T05:24:18.922Z,22.50
2019-05-29T05:25:18.906Z,22.50
2019-05-29T05:26:18.890Z,22.50
2019-05-29T05:27:18.872Z,22.50
2019-05-29T05:28:18.858Z,22.50
2019-05-29T05:29:18.840Z,22.50
2019-05-29T05:30:18.844Z,28.13
2019-05-29T05:31:18.819Z,28.13
2019-05-29T05:32:18.790Z,33.75
2019-05-29T05:33:18.783Z,39.38
2019-05-29T05:34:18.759Z,45.00
2019-05-29T05:35:18.744Z,50.63
2019-05-29T05:36:18.728Z,50.63
2019-05-29T05:37:18.716Z,56.25
2019-05-29T05:38:18.693Z,56.25
2019-05-29T05:39:18.676Z,56.25
2019-05-29T05:40:18.674Z,56.25
2019-05-29T05:41:18.646Z,56.25
2019-05-29T05:42:18.630Z,56.25
2019-05-29T05:43:24.111Z,61.88
2019-05-29T05:44:18.598Z,61.88
2019-05-29T05:45:18.583Z,56.25
2019-05-29T05:46:18.556Z,56.25
2019-05-29T05:47:18.549Z,56.25
2019-05-29T05:48:18.538Z,61.88
2019-05-29T05:49:18.519Z,61.88
2019-05-29T05:50:18.500Z,67.50
2019-05-29T05:51:18.486Z,67.50
2019-05-29T05:52:18.469Z,67.50
2019-05-29T05:53:18.453Z,73.13
2019-05-29T05:54:18.441Z,73.13
2019-05-29T05:55:18.422Z,73.13
2019-05-29T05:56:18.411Z,73.13
2019-05-29T05:57:18.389Z,73.13
2019-05-29T05:58:18.382Z,73.13
2019-05-29T05:59:18.358Z,73.13
2019-05-29T06:00:18.343Z,73.13
2019-05-29T06:01:18.327Z,73.13
2019-05-29T06:02:18.331Z,73.13
2019-05-29T06:03:18.295Z,78.75
2019-05-29T06:04:18.282Z,78.75
2019-05-29T06:05:18.270Z,78.75
2019-05-29T06:06:18.283Z,78.75
2019-05-29T06:07:18.235Z,84.38
2019-05-29T06:08:18.259Z,90.00
2019-05-29T06:09:18.207Z,90.00
2019-05-29T06:10:18.199Z,84.38
2019-05-29T06:11:18.169Z,84.38
2019-05-29T06:12:18.155Z,78.75
2019-05-29T06:13:18.297Z,84.38
2019-05-29T06:14:18.124Z,84.38
2019-05-29T06:15:18.109Z,84.38
2019-05-29T06:16:18.118Z,78.75
2019-05-29T06:17:21.230Z,73.13
2019-05-29T06:18:21.514Z,73.13
2019-05-29T06:19:18.047Z,73.13
2019-05-29T06:20:18.031Z,78.75
2019-05-29T06:21:18.021Z,78.75
2019-05-29T06:22:18.002Z,78.75
2019-05-29T06:23:17.987Z,84.38
2019-05-29T06:24:17.988Z,78.75
2019-05-29T06:25:18.142Z,78.75
2019-05-29T06:26:17.944Z,73.13
2019-05-29T06:27:17.924Z,73.13
2019-05-29T06:28:17.919Z,73.13
2019-05-29T06:29:17.897Z,73.13
2019-05-29T06:30:17.887Z,73.13
2019-05-29T06:31:17.878Z,67.50
2019-05-29T06:32:17.868Z,67.50
2019-05-29T06:33:17.836Z,73.13
2019-05-29T06:34:17.837Z,73.13
2019-05-29T06:35:17.804Z,78.75
2019-05-29T06:36:17.792Z,90.00
2019-05-29T06:37:17.777Z,95.63
2019-05-29T06:38:17.761Z,106.88
2019-05-29T06:39:17.755Z,112.50
2019-05-29T06:40:17.742Z,118.13
2019-05-29T06:41:17.716Z,129.38
2019-05-29T06:42:17.706Z,140.63
2019-05-29T06:43:17.687Z,146.25
2019-05-29T06:44:17.671Z,140.63
2019-05-29T06:45:17.697Z,146.25
2019-05-29T06:46:17.643Z,140.63
2019-05-29T06:47:17.631Z,146.25
2019-05-29T06:48:17.613Z,157.50
2019-05-29T06:49:17.596Z,174.38
2019-05-29T06:50:17.583Z,196.88
2019-05-29T06:51:17.576Z,213.75
2019-05-29T06:52:17.558Z,219.38
2019-05-29T06:53:17.540Z,236.25
2019-05-29T06:54:17.526Z,241.88
2019-05-29T06:55:17.512Z,225.00
2019-05-29T06:56:17.842Z,208.13
2019-05-29T06:57:17.552Z,191.25
2019-05-29T06:58:17.488Z,191.25
2019-05-29T06:59:17.458Z,208.13
2019-05-29T07:00:34.070Z,236.25
2019-05-29T07:01:17.429Z,253.13
2019-05-29T07:02:17.418Z,247.50
2019-05-29T07:03:17.420Z,230.63
2019-05-29T07:04:17.393Z,219.38
2019-05-29T07:05:17.377Z,225.00
2019-05-29T07:06:17.365Z,202.50
2019-05-29T07:07:17.352Z,163.13
2019-05-29T07:08:24.105Z,151.88
2019-05-29T07:09:17.327Z,151.88
2019-05-29T07:10:17.315Z,157.50
2019-05-29T07:11:17.308Z,146.25
2019-05-29T07:12:17.291Z,140.63
2019-05-29T07:13:17.333Z,146.25
2019-05-29T07:14:17.266Z,146.25
2019-05-29T07:15:17.253Z,140.63
2019-05-29T07:16:17.242Z,118.13
2019-05-29T07:17:17.227Z,101.25
2019-05-29T07:18:17.215Z,84.38
2019-05-29T07:19:25.699Z,78.75
2019-05-29T07:20:17.190Z,78.75
2019-05-29T07:21:17.183Z,84.38
2019-05-29T07:22:17.168Z,84.38
2019-05-29T07:23:17.154Z,84.38
2019-05-29T07:24:17.143Z,84.38
2019-05-29T07:25:17.132Z,84.38
2019-05-29T07:26:17.132Z,101.25
2019-05-29T07:27:17.104Z,118.13
2019-05-29T07:28:17.088Z,135.00
2019-05-29T07:29:17.084Z,163.13
2019-05-29T07:30:17.063Z,196.88
2019-05-29T07:31:17.114Z,219.38
2019-05-29T07:32:17.037Z,225.00
2019-05-29T07:33:17.025Z,241.88
2019-05-29T07:34:17.011Z,230.63
2019-05-29T07:35:16.996Z,225.00
2019-05-29T07:36:17.002Z,219.38
2019-05-29T07:37:16.977Z,213.75
2019-05-29T07:38:16.963Z,208.13
2019-05-29T07:39:16.946Z,208.13
2019-05-29T07:40:16.935Z,230.63
2019-05-29T07:41:16.926Z,247.50
2019-05-29T07:42:16.917Z,253.13
2019-05-29T07:43:16.895Z,253.13
2019-05-29T07:44:16.885Z,253.13
2019-05-29T07:45:16.879Z,253.13
2019-05-29T07:46:16.864Z,253.13
2019-05-29T07:47:16.849Z,247.50
2019-05-29T07:48:16.838Z,225.00
2019-05-29T07:49:16.825Z,208.13
2019-05-29T07:50:16.815Z,202.50
2019-05-29T07:51:16.803Z,196.88
2019-05-29T07:52:16.787Z,213.75
2019-05-29T07:53:16.789Z,219.38
2019-05-29T07:54:16.769Z,225.00
2019-05-29T07:55:16.759Z,236.25
2019-05-29T07:56:22.760Z,236.25
2019-05-29T07:57:16.740Z,236.25
2019-05-29T07:58:16.721Z,247.50
2019-05-29T07:59:16.711Z,264.38
2019-05-29T08:00:16.705Z,264.38
2019-05-29T08:01:16.689Z,264.38
2019-05-29T08:02:16.682Z,247.50
2019-05-29T08:03:16.673Z,247.50
2019-05-29T08:04:16.658Z,191.25
2019-05-29T08:05:16.642Z,185.63
2019-05-29T08:06:16.637Z,213.75
2019-05-29T08:07:16.627Z,247.50
2019-05-29T08:08:16.632Z,270.00
2019-05-29T08:09:16.604Z,281.25
2019-05-29T08:10:16.594Z,281.25
2019-05-29T08:11:16.583Z,292.50
2019-05-29T08:12:16.575Z,292.50
2019-05-29T08:13:16.571Z,275.63
2019-05-29T08:14:16.557Z,264.38
2019-05-29T08:15:16.559Z,253.13
2019-05-29T08:16:16.531Z,241.88
2019-05-29T08:17:16.524Z,236.25
2019-05-29T08:18:16.519Z,236.25
2019-05-29T08:19:16.499Z,253.13
2019-05-29T08:20:16.495Z,286.88
2019-05-29T08:21:16.485Z,320.63
2019-05-29T08:22:30.363Z,337.50
2019-05-29T08:23:16.459Z,343.13
2019-05-29T08:24:16.451Z,354.38
2019-05-29T08:25:16.440Z,365.63
2019-05-29T08:26:16.430Z,365.63
2019-05-29T08:27:16.421Z,360.00
2019-05-29T08:28:16.403Z,348.75
2019-05-29T08:29:16.403Z,343.13
2019-05-29T08:30:16.413Z,343.13
2019-05-29T08:31:16.383Z,337.50
2019-05-29T08:32:16.374Z,337.50
2019-05-29T08:33:16.365Z,337.50
2019-05-29T08:34:16.367Z,343.13
2019-05-29T08:35:16.347Z,337.50
2019-05-29T08:36:16.341Z,326.25
2019-05-29T08:37:16.329Z,320.63
2019-05-29T08:38:16.320Z,303.75
2019-05-29T08:39:34.041Z,292.50
2019-05-29T08:40:16.305Z,281.25
2019-05-29T08:41:16.300Z,281.25
2019-05-29T08:42:23.254Z,286.88
2019-05-29T08:43:16.282Z,286.88
2019-05-29T08:44:16.271Z,286.88
2019-05-29T08:45:16.263Z,281.25
2019-05-29T08:46:16.261Z,275.63
2019-05-29T08:47:16.248Z,275.63
2019-05-29T08:48:16.236Z,286.88
2019-05-29T08:49:16.229Z,298.13
2019-05-29T08:50:18.565Z,320.63
2019-05-29T08:51:16.216Z,331.88
2019-05-29T08:52:16.208Z,337.50
2019-05-29T08:53:16.198Z,337.50
2019-05-29T08:54:23.845Z,343.13
2019-05-29T08:55:16.184Z,343.13
2019-05-29T08:56:16.172Z,343.13
2019-05-29T08:57:16.170Z,337.50
2019-05-29T08:58:16.156Z,331.88
2019-05-29T08:59:16.149Z,331.88
2019-05-29T09:00:16.140Z,326.25
2019-05-29T09:01:16.139Z,320.63
2019-05-29T09:02:16.125Z,309.38
2019-05-29T09:03:16.119Z,292.50
2019-05-29T09:04:16.108Z,281.25
2019-05-29T09:05:16.102Z,275.63
2019-05-29T09:06:16.091Z,264.38
2019-05-29T09:07:16.081Z,264.38
2019-05-29T09:08:16.077Z,247.50
2019-05-29T09:09:16.068Z,247.50
2019-05-29T09:10:16.056Z,247.50
2019-05-29T09:11:16.062Z,241.88
2019-05-29T09:12:16.042Z,236.25
2019-05-29T09:13:16.034Z,230.63
2019-05-29T09:14:16.034Z,236.25
2019-05-29T09:15:21.228Z,241.88
2019-05-29T09:16:16.009Z,241.88
2019-05-29T09:17:16.895Z,241.88
2019-05-29T09:18:17.038Z,236.25
2019-05-29T09:19:16.358Z,225.00
2019-05-29T09:20:28.418Z,219.38
2019-05-29T09:21:17.474Z,213.75
2019-05-29T09:22:16.526Z,208.13
2019-05-29T09:23:16.871Z,196.88
2019-05-29T09:24:17.403Z,185.63
2019-05-29T09:25:16.955Z,168.75
2019-05-29T09:26:21.941Z,151.88
2019-05-29T09:27:17.005Z,140.63
2019-05-29T09:28:17.209Z,129.38
2019-05-29T09:29:18.688Z,118.13
2019-05-29T09:30:17.141Z,112.50
2019-05-29T09:31:17.366Z,106.88
2019-05-29T09:32:17.056Z,106.88
2019-05-29T09:33:18.112Z,106.88
2019-05-29T09:34:16.685Z,112.50
2019-05-29T09:35:17.471Z,123.75
2019-05-29T09:36:17.166Z,135.00
2019-05-29T09:37:17.280Z,157.50
2019-05-29T09:38:16.878Z,185.63
2019-05-29T09:39:16.710Z,213.75
2019-05-29T09:40:16.922Z,230.63
2019-05-29T09:41:17.287Z,236.25
2019-05-29T09:42:17.364Z,241.88
2019-05-29T09:43:16.939Z,241.88
2019-05-29T09:44:31.294Z,236.25
2019-05-29T09:45:16.598Z,230.63
2019-05-29T09:46:16.954Z,219.38
2019-05-29T09:47:17.242Z,208.13
2019-05-29T09:48:20.244Z,196.88
2019-05-29T09:49:16.822Z,185.63
2019-05-29T09:50:16.943Z,185.63
2019-05-29T09:51:21.091Z,185.63
2019-05-29T09:52:15.686Z,185.63
2019-05-29T09:53:15.682Z,180.00
2019-05-29T09:54:15.716Z,180.00
2019-05-29T09:55:15.656Z,185.63
2019-05-29T09:56:15.652Z,168.75
2019-05-29T09:57:15.639Z,163.13
2019-05-29T09:58:15.631Z,157.50
2019-05-29T09:59:15.622Z,151.88
2019-05-29T10:00:15.621Z,151.88
2019-05-29T10:01:23.485Z,146.25
2019-05-29T10:02:15.592Z,146.25
2019-05-29T10:03:15.580Z,146.25
2019-05-29T10:04:15.577Z,146.25
2019-05-29T10:05:15.579Z,135.00
2019-05-29T10:06:15.561Z,123.75
2019-05-29T10:07:15.542Z,129.38
2019-05-29T10:08:17.049Z,135.00
2019-05-29T10:09:15.522Z,163.13
2019-05-29T10:10:15.516Z,174.38
2019-05-29T10:11:15.509Z,185.63
2019-05-29T10:12:15.494Z,196.88
2019-05-29T10:13:15.484Z,208.13
2019-05-29T10:14:15.478Z,213.75
2019-05-29T10:15:15.473Z,225.00
2019-05-29T10:16:15.459Z,241.88
2019-05-29T10:17:15.457Z,253.13
2019-05-29T10:18:31.327Z,264.38
2019-05-29T10:19:15.448Z,270.00
2019-05-29T10:20:15.417Z,270.00
2019-05-29T10:21:15.401Z,275.63
2019-05-29T10:22:15.392Z,275.63
2019-05-29T10:23:15.384Z,275.63
2019-05-29T10:24:15.375Z,275.63
2019-05-29T10:25:15.362Z,286.88
2019-05-29T10:26:15.356Z,292.50
2019-05-29T10:27:15.366Z,298.13
2019-05-29T10:28:15.334Z,309.38
2019-05-29T10:29:15.323Z,326.25
2019-05-29T10:30:15.317Z,343.13
2019-05-29T10:31:15.308Z,354.38
2019-05-29T10:32:15.301Z,360.00
2019-05-29T10:33:15.288Z,365.63
2019-05-29T10:34:15.301Z,371.25
2019-05-29T10:35:15.274Z,382.50
2019-05-29T10:36:15.262Z,376.88
2019-05-29T10:37:18.055Z,382.50
2019-05-29T10:38:15.244Z,405.00
2019-05-29T10:39:15.235Z,382.50
2019-05-29T10:40:15.227Z,365.63
2019-05-29T10:41:15.229Z,348.75
2019-05-29T10:42:15.216Z,331.88
2019-05-29T10:43:32.834Z,309.38
2019-05-29T10:44:15.217Z,309.38
2019-05-29T10:45:15.193Z,315.00
2019-05-29T10:46:15.187Z,315.00
2019-05-29T10:47:15.180Z,315.00
2019-05-29T10:48:15.172Z,309.38
2019-05-29T10:49:15.183Z,303.75
2019-05-29T10:50:15.174Z,303.75
2019-05-29T10:51:15.157Z,298.13
2019-05-29T10:52:17.372Z,292.50
2019-05-29T10:53:15.146Z,286.88
2019-05-29T10:54:15.133Z,275.63
2019-05-29T10:55:15.120Z,264.38
2019-05-29T10:56:15.117Z,270.00
2019-05-29T10:57:15.114Z,258.75
2019-05-29T10:58:15.105Z,253.13
2019-05-29T10:59:15.096Z,258.75
2019-05-29T11:00:15.084Z,264.38
2019-05-29T11:01:15.081Z,264.38
2019-05-29T11:02:15.068Z,270.00
2019-05-29T11:03:15.060Z,275.63
2019-05-29T11:04:15.050Z,281.25
2019-05-29T11:05:15.043Z,286.88
2019-05-29T11:06:15.035Z,292.50
2019-05-29T11:07:15.022Z,292.50
2019-05-29T11:08:15.022Z,298.13
2019-05-29T11:09:15.027Z,292.50
2019-05-29T11:10:15.001Z,292.50
2019-05-29T11:11:14.994Z,292.50
2019-05-29T11:12:14.981Z,292.50
2019-05-29T11:13:14.972Z,292.50
2019-05-29T11:14:15.027Z,292.50
2019-05-29T11:15:21.355Z,298.13
2019-05-29T11:16:14.941Z,298.13
2019-05-29T11:17:14.934Z,303.75
2019-05-29T11:18:14.926Z,303.75
2019-05-29T11:19:14.914Z,315.00
2019-05-29T11:20:14.928Z,315.00
2019-05-29T11:21:14.903Z,320.63
2019-05-29T11:22:25.718Z,326.25
2019-05-29T11:23:14.879Z,326.25
2019-05-29T11:24:14.869Z,326.25
2019-05-29T11:25:22.435Z,326.25
2019-05-29T11:26:14.853Z,331.88
2019-05-29T11:27:14.841Z,331.88
2019-05-29T11:28:14.835Z,331.88
2019-05-29T11:29:14.827Z,326.25
2019-05-29T11:30:14.820Z,326.25
2019-05-29T11:31:14.811Z,326.25
2019-05-29T11:32:14.796Z,326.25
2019-05-29T11:33:15.021Z,326.25
2019-05-29T11:34:14.793Z,320.63
2019-05-29T11:35:14.773Z,320.63
2019-05-29T11:36:14.767Z,315.00
2019-05-29T11:37:14.755Z,315.00
2019-05-29T11:38:14.750Z,309.38
2019-05-29T11:39:14.818Z,309.38
2019-05-29T11:40:14.750Z,309.38
2019-05-29T11:41:25.798Z,303.75
2019-05-29T11:42:26.867Z,303.75
2019-05-29T11:43:14.704Z,292.50
2019-05-29T11:44:14.696Z,281.25
2019-05-29T11:45:14.694Z,270.00
2019-05-29T11:46:14.674Z,258.75
2019-05-29T11:47:14.672Z,253.13
2019-05-29T11:48:14.669Z,247.50
2019-05-29T11:49:14.680Z,247.50
2019-05-29T11:50:19.597Z,247.50
2019-05-29T11:51:14.643Z,253.13
2019-05-29T11:52:24.261Z,253.13
2019-05-29T11:53:14.629Z,247.50
2019-05-29T11:54:14.621Z,241.88
2019-05-29T11:55:14.613Z,236.25
2019-05-29T11:56:14.606Z,230.63
2019-05-29T11:57:14.598Z,253.13
2019-05-29T11:58:29.970Z,230.63
2019-05-29T11:59:14.583Z,230.63
2019-05-29T12:00:20.430Z,219.38
2019-05-29T12:01:14.568Z,225.00
2019-05-29T12:02:14.560Z,241.88
2019-05-29T12:03:14.556Z,236.25
2019-05-29T12:04:25.908Z,219.38
2019-05-29T12:05:14.540Z,225.00
2019-05-29T12:06:14.581Z,219.38
2019-05-29T12:07:14.523Z,236.25
2019-05-29T12:08:14.544Z,241.88
2019-05-29T12:09:30.904Z,230.63
2019-05-29T12:10:14.692Z,247.50
2019-05-29T12:11:14.501Z,247.50
2019-05-29T12:12:14.493Z,247.50
2019-05-29T12:13:14.490Z,230.63
2019-05-29T12:14:14.484Z,213.75
2019-05-29T12:15:17.030Z,241.88
2019-05-29T12:16:14.474Z,241.88
2019-05-29T12:17:14.467Z,213.75
2019-05-29T12:18:23.576Z,236.25
2019-05-29T12:19:14.456Z,225.00
2019-05-29T12:20:27.092Z,264.38
2019-05-29T12:21:14.451Z,247.50
2019-05-29T12:22:14.448Z,253.13
2019-05-29T12:23:25.731Z,275.63
2019-05-29T12:24:14.436Z,270.00
2019-05-29T12:25:14.436Z,275.63
2019-05-29T12:26:22.216Z,343.13
2019-05-29T12:27:14.423Z,354.38
2019-05-29T12:28:14.425Z,360.00
2019-05-29T12:29:14.432Z,303.75
2019-05-29T12:30:14.419Z,315.00
2019-05-29T12:31:14.414Z,309.38
2019-05-29T12:32:14.438Z,286.88
2019-05-29T12:33:14.408Z,253.13
2019-05-29T12:34:19.229Z,225.00
2019-05-29T12:35:14.402Z,208.13
2019-05-29T12:36:14.399Z,196.88
2019-05-29T12:37:14.392Z,208.13
2019-05-29T12:38:14.393Z,185.63
2019-05-29T12:39:14.396Z,151.88
2019-05-29T12:40:14.384Z,140.63
2019-05-29T12:41:14.415Z,129.38
2019-05-29T12:42:14.388Z,118.13
2019-05-29T12:43:26.575Z,112.50
2019-05-29T12:44:14.371Z,106.88
2019-05-29T12:45:14.365Z,106.88
2019-05-29T12:46:14.360Z,112.50
2019-05-29T12:47:14.378Z,118.13
2019-05-29T12:48:15.603Z,123.75